< < Back
Terminal Aerodrome Forecast


Current Version              Previous Versions:   1  2  3  4  5  6  7  8  9  

Terminal Aerodrome Forecast

775
FTUS42 KFFC 221400 AAA
TAFATL
TAF AMD
KATL 221406Z 2214/2318 35010G16KT P6SM SKC
     FM230100 35003KT P6SM SKC
     FM231600 30005KT P6SM FEW250=

Latest METAR

141
SAUS70 KWBC 221400 RRE
MTRATL
METAR KATL 221352Z 34007KT 10SM CLR 12/05 A3011 RMK AO2 SLP193
T01170050


USA.gov is the U.S. government's official web portal to all federal, state and local government web resources and services.